sensor_id;sensor_type;location;lat;lon;timestamp;P1;durP1;ratioP1;P2;durP2;ratioP2
6013;SDS011;3035;49.928;8.410;2023-06-14T00:02:06;21.73;;;4.77;;
6013;SDS011;3035;49.928;8.410;2023-06-14T00:04:35;32.17;;;4.73;;
6013;SDS011;3035;49.928;8.410;2023-06-14T00:07:05;6.90;;;4.50;;
6013;SDS011;3035;49.928;8.410;2023-06-14T00:09:34;13.33;;;4.60;;
6013;SDS011;3035;49.928;8.410;2023-06-14T00:12:03;5.73;;;4.10;;
6013;SDS011;3035;49.928;8.410;2023-06-14T00:14:33;8.63;;;4.40;;
6013;SDS011;3035;49.928;8.410;2023-06-14T00:17:02;11.23;;;4.63;;
6013;SDS011;3035;49.928;8.410;2023-06-14T00:19:32;14.97;;;5.30;;
6013;SDS011;3035;49.928;8.410;2023-06-14T00:22:01;8.83;;;5.10;;
6013;SDS011;3035;49.928;8.410;2023-06-14T00:24:30;16.20;;;6.60;;
6013;SDS011;3035;49.928;8.410;2023-06-14T00:26:59;12.30;;;5.90;;
6013;SDS011;3035;49.928;8.410;2023-06-14T00:29:29;8.37;;;5.53;;
6013;SDS011;3035;49.928;8.410;2023-06-14T00:31:58;17.73;;;5.33;;
6013;SDS011;3035;49.928;8.410;2023-06-14T00:34:27;6.70;;;4.87;;
6013;SDS011;3035;49.928;8.410;2023-06-14T00:36:57;16.20;;;4.40;;
6013;SDS011;3035;49.928;8.410;2023-06-14T00:39:26;8.40;;;5.30;;
6013;SDS011;3035;49.928;8.410;2023-06-14T00:41:55;5.83;;;4.83;;
6013;SDS011;3035;49.928;8.410;2023-06-14T00:44:25;13.17;;;5.30;;
6013;SDS011;3035;49.928;8.410;2023-06-14T00:46:54;6.40;;;4.33;;
6013;SDS011;3035;49.928;8.410;2023-06-14T00:49:23;5.87;;;4.17;;
6013;SDS011;3035;49.928;8.410;2023-06-14T00:51:52;5.50;;;4.40;;
6013;SDS011;3035;49.928;8.410;2023-06-14T00:54:22;11.27;;;4.47;;
6013;SDS011;3035;49.928;8.410;2023-06-14T00:56:51;6.43;;;4.20;;
6013;SDS011;3035;49.928;8.410;2023-06-14T00:59:20;8.93;;;4.83;;
6013;SDS011;3035;49.928;8.410;2023-06-14T01:01:50;13.10;;;4.57;;
6013;SDS011;3035;49.928;8.410;2023-06-14T01:04:19;7.03;;;3.97;;
6013;SDS011;3035;49.928;8.410;2023-06-14T01:06:52;6.60;;;4.50;;
6013;SDS011;3035;49.928;8.410;2023-06-14T01:09:27;36.47;;;4.50;;
6013;SDS011;3035;49.928;8.410;2023-06-14T01:11:56;8.03;;;3.97;;
6013;SDS011;3035;49.928;8.410;2023-06-14T01:14:28;7.47;;;4.73;;
6013;SDS011;3035;49.928;8.410;2023-06-14T01:16:57;7.90;;;4.30;;
6013;SDS011;3035;49.928;8.410;2023-06-14T01:19:26;10.90;;;4.80;;
6013;SDS011;3035;49.928;8.410;2023-06-14T01:21:55;7.57;;;4.70;;
6013;SDS011;3035;49.928;8.410;2023-06-14T01:24:25;12.27;;;4.03;;
6013;SDS011;3035;49.928;8.410;2023-06-14T01:26:54;18.20;;;4.83;;
6013;SDS011;3035;49.928;8.410;2023-06-14T01:29:23;13.53;;;5.20;;
6013;SDS011;3035;49.928;8.410;2023-06-14T01:31:53;7.40;;;4.17;;
6013;SDS011;3035;49.928;8.410;2023-06-14T01:34:22;10.37;;;4.47;;
6013;SDS011;3035;49.928;8.410;2023-06-14T01:36:51;6.17;;;4.63;;
6013;SDS011;3035;49.928;8.410;2023-06-14T01:39:20;8.83;;;4.57;;
6013;SDS011;3035;49.928;8.410;2023-06-14T01:41:50;6.20;;;4.47;;
6013;SDS011;3035;49.928;8.410;2023-06-14T01:44:19;7.97;;;4.40;;
6013;SDS011;3035;49.928;8.410;2023-06-14T01:46:48;8.30;;;4.57;;
6013;SDS011;3035;49.928;8.410;2023-06-14T01:49:18;7.63;;;4.77;;
6013;SDS011;3035;49.928;8.410;2023-06-14T01:51:47;6.60;;;4.23;;
6013;SDS011;3035;49.928;8.410;2023-06-14T01:54:16;6.03;;;4.73;;
6013;SDS011;3035;49.928;8.410;2023-06-14T01:56:45;5.40;;;4.30;;
6013;SDS011;3035;49.928;8.410;2023-06-14T01:59:15;8.10;;;4.97;;
6013;SDS011;3035;49.928;8.410;2023-06-14T02:01:44;8.77;;;4.30;;
6013;SDS011;3035;49.928;8.410;2023-06-14T02:04:13;19.00;;;4.97;;
6013;SDS011;3035;49.928;8.410;2023-06-14T02:06:43;10.70;;;4.00;;
6013;SDS011;3035;49.928;8.410;2023-06-14T02:09:12;9.60;;;4.57;;
6013;SDS011;3035;49.928;8.410;2023-06-14T02:11:41;15.93;;;4.60;;
6013;SDS011;3035;49.928;8.410;2023-06-14T02:14:10;7.20;;;4.43;;
6013;SDS011;3035;49.928;8.410;2023-06-14T02:16:40;9.13;;;4.43;;
6013;SDS011;3035;49.928;8.410;2023-06-14T02:19:09;13.13;;;4.37;;
6013;SDS011;3035;49.928;8.410;2023-06-14T02:21:38;9.83;;;4.93;;
6013;SDS011;3035;49.928;8.410;2023-06-14T02:24:08;7.60;;;4.40;;
6013;SDS011;3035;49.928;8.410;2023-06-14T02:26:37;6.83;;;4.47;;
6013;SDS011;3035;49.928;8.410;2023-06-14T02:29:06;6.37;;;3.77;;
6013;SDS011;3035;49.928;8.410;2023-06-14T02:31:38;7.33;;;4.17;;
6013;SDS011;3035;49.928;8.410;2023-06-14T02:34:07;11.13;;;4.97;;
6013;SDS011;3035;49.928;8.410;2023-06-14T02:36:36;21.27;;;3.90;;
6013;SDS011;3035;49.928;8.410;2023-06-14T02:39:08;5.87;;;4.17;;
6013;SDS011;3035;49.928;8.410;2023-06-14T02:41:38;12.97;;;5.10;;
6013;SDS011;3035;49.928;8.410;2023-06-14T02:44:07;6.67;;;4.13;;
6013;SDS011;3035;49.928;8.410;2023-06-14T02:46:36;17.17;;;4.50;;
6013;SDS011;3035;49.928;8.410;2023-06-14T02:49:05;7.70;;;4.13;;
6013;SDS011;3035;49.928;8.410;2023-06-14T02:51:35;5.70;;;3.83;;
6013;SDS011;3035;49.928;8.410;2023-06-14T02:54:04;5.90;;;4.40;;
6013;SDS011;3035;49.928;8.410;2023-06-14T02:56:33;8.87;;;4.60;;
6013;SDS011;3035;49.928;8.410;2023-06-14T02:59:03;8.37;;;4.67;;
6013;SDS011;3035;49.928;8.410;2023-06-14T03:01:32;7.13;;;4.07;;
6013;SDS011;3035;49.928;8.410;2023-06-14T03:04:02;7.73;;;3.87;;
6013;SDS011;3035;49.928;8.410;2023-06-14T03:06:31;20.17;;;5.57;;
6013;SDS011;3035;49.928;8.410;2023-06-14T03:09:01;9.30;;;4.13;;
6013;SDS011;3035;49.928;8.410;2023-06-14T03:11:30;8.33;;;4.87;;
6013;SDS011;3035;49.928;8.410;2023-06-14T03:13:59;8.60;;;4.00;;
6013;SDS011;3035;49.928;8.410;2023-06-14T03:16:29;11.23;;;4.43;;
6013;SDS011;3035;49.928;8.410;2023-06-14T03:18:58;17.13;;;4.30;;
6013;SDS011;3035;49.928;8.410;2023-06-14T03:21:27;12.00;;;4.40;;
6013;SDS011;3035;49.928;8.410;2023-06-14T03:23:56;8.37;;;3.60;;
6013;SDS011;3035;49.928;8.410;2023-06-14T03:26:26;16.43;;;4.63;;
6013;SDS011;3035;49.928;8.410;2023-06-14T03:28:55;13.17;;;3.83;;
6013;SDS011;3035;49.928;8.410;2023-06-14T03:31:24;7.73;;;3.60;;
6013;SDS011;3035;49.928;8.410;2023-06-14T03:33:53;8.67;;;4.00;;
6013;SDS011;3035;49.928;8.410;2023-06-14T03:36:23;14.63;;;4.63;;
6013;SDS011;3035;49.928;8.410;2023-06-14T03:38:52;17.27;;;4.20;;
6013;SDS011;3035;49.928;8.410;2023-06-14T03:41:21;4.97;;;3.50;;
6013;SDS011;3035;49.928;8.410;2023-06-14T03:43:51;5.40;;;3.47;;
6013;SDS011;3035;49.928;8.410;2023-06-14T03:46:20;7.63;;;4.20;;
6013;SDS011;3035;49.928;8.410;2023-06-14T03:48:49;15.13;;;4.00;;
6013;SDS011;3035;49.928;8.410;2023-06-14T03:51:18;9.80;;;4.70;;
6013;SDS011;3035;49.928;8.410;2023-06-14T03:53:48;10.63;;;3.87;;
6013;SDS011;3035;49.928;8.410;2023-06-14T03:56:17;16.90;;;4.07;;
6013;SDS011;3035;49.928;8.410;2023-06-14T03:58:46;6.93;;;4.60;;
6013;SDS011;3035;49.928;8.410;2023-06-14T04:01:16;5.43;;;3.60;;
6013;SDS011;3035;49.928;8.410;2023-06-14T04:03:45;12.33;;;3.87;;
6013;SDS011;3035;49.928;8.410;2023-06-14T04:06:14;4.60;;;3.63;;
6013;SDS011;3035;49.928;8.410;2023-06-14T04:08:43;8.27;;;3.63;;
6013;SDS011;3035;49.928;8.410;2023-06-14T04:11:13;9.50;;;4.70;;
6013;SDS011;3035;49.928;8.410;2023-06-14T04:13:42;6.20;;;3.40;;
6013;SDS011;3035;49.928;8.410;2023-06-14T04:16:11;7.50;;;3.60;;
6013;SDS011;3035;49.928;8.410;2023-06-14T04:18:41;8.70;;;4.50;;
6013;SDS011;3035;49.928;8.410;2023-06-14T04:21:10;7.60;;;4.13;;
6013;SDS011;3035;49.928;8.410;2023-06-14T04:23:39;5.17;;;3.90;;
6013;SDS011;3035;49.928;8.410;2023-06-14T04:26:08;5.70;;;3.63;;
6013;SDS011;3035;49.928;8.410;2023-06-14T04:28:38;6.20;;;4.37;;
6013;SDS011;3035;49.928;8.410;2023-06-14T04:31:07;8.83;;;3.80;;
6013;SDS011;3035;49.928;8.410;2023-06-14T04:33:36;14.10;;;4.30;;
6013;SDS011;3035;49.928;8.410;2023-06-14T04:36:06;7.40;;;4.13;;
6013;SDS011;3035;49.928;8.410;2023-06-14T04:38:36;15.13;;;3.50;;
6013;SDS011;3035;49.928;8.410;2023-06-14T04:41:05;6.20;;;4.13;;
6013;SDS011;3035;49.928;8.410;2023-06-14T04:43:34;6.80;;;3.10;;
6013;SDS011;3035;49.928;8.410;2023-06-14T04:46:05;7.63;;;4.00;;
6013;SDS011;3035;49.928;8.410;2023-06-14T04:48:33;5.37;;;3.50;;
6013;SDS011;3035;49.928;8.410;2023-06-14T04:51:03;6.77;;;3.67;;
6013;SDS011;3035;49.928;8.410;2023-06-14T04:53:32;4.00;;;3.23;;
6013;SDS011;3035;49.928;8.410;2023-06-14T04:56:01;7.47;;;4.20;;
6013;SDS011;3035;49.928;8.410;2023-06-14T04:58:30;5.60;;;4.00;;
6013;SDS011;3035;49.928;8.410;2023-06-14T05:01:00;13.20;;;4.00;;
6013;SDS011;3035;49.928;8.410;2023-06-14T05:03:29;10.53;;;3.67;;
6013;SDS011;3035;49.928;8.410;2023-06-14T05:05:58;4.00;;;3.50;;
6013;SDS011;3035;49.928;8.410;2023-06-14T05:08:28;8.70;;;3.97;;
6013;SDS011;3035;49.928;8.410;2023-06-14T05:10:57;5.83;;;3.23;;
6013;SDS011;3035;49.928;8.410;2023-06-14T05:13:26;7.80;;;3.93;;
6013;SDS011;3035;49.928;8.410;2023-06-14T05:15:55;9.13;;;3.87;;
6013;SDS011;3035;49.928;8.410;2023-06-14T05:18:25;15.03;;;3.73;;
6013;SDS011;3035;49.928;8.410;2023-06-14T05:20:54;14.83;;;3.40;;
6013;SDS011;3035;49.928;8.410;2023-06-14T05:23:23;14.93;;;4.20;;
6013;SDS011;3035;49.928;8.410;2023-06-14T05:25:52;5.80;;;4.10;;
6013;SDS011;3035;49.928;8.410;2023-06-14T05:28:22;5.87;;;3.50;;
6013;SDS011;3035;49.928;8.410;2023-06-14T05:30:51;9.00;;;3.97;;
6013;SDS011;3035;49.928;8.410;2023-06-14T05:33:20;5.67;;;3.43;;
6013;SDS011;3035;49.928;8.410;2023-06-14T05:35:49;11.60;;;3.80;;
6013;SDS011;3035;49.928;8.410;2023-06-14T05:38:19;4.13;;;3.10;;
6013;SDS011;3035;49.928;8.410;2023-06-14T05:40:48;6.10;;;3.30;;
6013;SDS011;3035;49.928;8.410;2023-06-14T05:43:17;5.27;;;3.87;;
6013;SDS011;3035;49.928;8.410;2023-06-14T05:45:46;8.07;;;3.70;;
6013;SDS011;3035;49.928;8.410;2023-06-14T05:48:16;3.50;;;3.17;;
6013;SDS011;3035;49.928;8.410;2023-06-14T05:50:45;5.63;;;3.30;;
6013;SDS011;3035;49.928;8.410;2023-06-14T05:53:14;5.17;;;3.70;;
6013;SDS011;3035;49.928;8.410;2023-06-14T05:55:44;8.57;;;4.00;;
6013;SDS011;3035;49.928;8.410;2023-06-14T05:58:13;14.43;;;3.87;;
6013;SDS011;3035;49.928;8.410;2023-06-14T06:00:42;7.40;;;3.40;;
6013;SDS011;3035;49.928;8.410;2023-06-14T06:03:11;5.27;;;3.13;;
6013;SDS011;3035;49.928;8.410;2023-06-14T06:05:41;7.27;;;3.90;;
6013;SDS011;3035;49.928;8.410;2023-06-14T06:08:10;9.43;;;3.70;;
6013;SDS011;3035;49.928;8.410;2023-06-14T06:10:39;5.87;;;3.50;;
6013;SDS011;3035;49.928;8.410;2023-06-14T06:13:09;4.63;;;3.43;;
6013;SDS011;3035;49.928;8.410;2023-06-14T06:15:38;5.23;;;3.40;;
6013;SDS011;3035;49.928;8.410;2023-06-14T06:18:07;6.90;;;3.20;;
6013;SDS011;3035;49.928;8.410;2023-06-14T06:20:36;6.40;;;3.47;;
6013;SDS011;3035;49.928;8.410;2023-06-14T06:23:05;4.67;;;3.00;;
6013;SDS011;3035;49.928;8.410;2023-06-14T06:25:35;9.67;;;4.00;;
6013;SDS011;3035;49.928;8.410;2023-06-14T06:28:04;15.53;;;3.33;;
6013;SDS011;3035;49.928;8.410;2023-06-14T06:30:33;5.30;;;3.17;;
6013;SDS011;3035;49.928;8.410;2023-06-14T06:33:03;9.00;;;3.50;;
6013;SDS011;3035;49.928;8.410;2023-06-14T06:35:32;4.80;;;3.20;;
6013;SDS011;3035;49.928;8.410;2023-06-14T06:38:01;7.53;;;3.60;;
6013;SDS011;3035;49.928;8.410;2023-06-14T06:40:30;5.23;;;3.27;;
6013;SDS011;3035;49.928;8.410;2023-06-14T06:43:00;12.13;;;3.37;;
6013;SDS011;3035;49.928;8.410;2023-06-14T06:45:29;11.60;;;3.40;;
6013;SDS011;3035;49.928;8.410;2023-06-14T06:47:58;20.50;;;4.20;;
6013;SDS011;3035;49.928;8.410;2023-06-14T06:50:27;5.77;;;3.40;;
6013;SDS011;3035;49.928;8.410;2023-06-14T06:52:57;5.37;;;3.33;;
6013;SDS011;3035;49.928;8.410;2023-06-14T06:55:26;5.27;;;2.70;;
6013;SDS011;3035;49.928;8.410;2023-06-14T06:57:55;10.47;;;3.70;;
6013;SDS011;3035;49.928;8.410;2023-06-14T07:00:24;6.10;;;3.70;;
6013;SDS011;3035;49.928;8.410;2023-06-14T07:02:55;7.87;;;3.00;;
6013;SDS011;3035;49.928;8.410;2023-06-14T07:05:24;8.03;;;3.30;;
6013;SDS011;3035;49.928;8.410;2023-06-14T07:07:53;5.90;;;4.27;;
6013;SDS011;3035;49.928;8.410;2023-06-14T07:10:22;8.30;;;3.50;;
6013;SDS011;3035;49.928;8.410;2023-06-14T07:12:52;5.13;;;3.40;;
6013;SDS011;3035;49.928;8.410;2023-06-14T07:15:21;8.20;;;3.13;;
6013;SDS011;3035;49.928;8.410;2023-06-14T07:17:50;6.63;;;3.40;;
6013;SDS011;3035;49.928;8.410;2023-06-14T07:20:19;6.73;;;3.17;;
6013;SDS011;3035;49.928;8.410;2023-06-14T07:22:49;9.50;;;4.03;;
6013;SDS011;3035;49.928;8.410;2023-06-14T07:25:18;6.83;;;3.80;;
6013;SDS011;3035;49.928;8.410;2023-06-14T07:27:47;9.07;;;4.23;;
6013;SDS011;3035;49.928;8.410;2023-06-14T07:30:16;9.47;;;3.60;;
6013;SDS011;3035;49.928;8.410;2023-06-14T07:32:46;6.33;;;3.20;;
6013;SDS011;3035;49.928;8.410;2023-06-14T07:35:15;7.13;;;3.07;;
6013;SDS011;3035;49.928;8.410;2023-06-14T07:37:44;5.17;;;2.90;;
6013;SDS011;3035;49.928;8.410;2023-06-14T07:40:14;9.63;;;3.23;;
6013;SDS011;3035;49.928;8.410;2023-06-14T07:42:43;13.63;;;3.50;;
6013;SDS011;3035;49.928;8.410;2023-06-14T07:45:13;6.20;;;3.10;;
6013;SDS011;3035;49.928;8.410;2023-06-14T07:47:42;5.90;;;2.97;;
6013;SDS011;3035;49.928;8.410;2023-06-14T07:50:11;5.53;;;3.57;;
6013;SDS011;3035;49.928;8.410;2023-06-14T07:52:41;12.70;;;3.47;;
6013;SDS011;3035;49.928;8.410;2023-06-14T07:55:10;5.23;;;2.87;;
6013;SDS011;3035;49.928;8.410;2023-06-14T07:57:39;3.80;;;3.23;;
6013;SDS011;3035;49.928;8.410;2023-06-14T08:00:08;12.10;;;3.83;;
6013;SDS011;3035;49.928;8.410;2023-06-14T08:02:38;13.93;;;2.70;;
6013;SDS011;3035;49.928;8.410;2023-06-14T08:05:09;5.03;;;3.67;;
6013;SDS011;3035;49.928;8.410;2023-06-14T08:07:37;5.53;;;2.93;;
6013;SDS011;3035;49.928;8.410;2023-06-14T08:10:06;2.90;;;2.47;;
6013;SDS011;3035;49.928;8.410;2023-06-14T08:12:36;6.73;;;2.63;;
6013;SDS011;3035;49.928;8.410;2023-06-14T08:15:05;3.60;;;2.47;;
6013;SDS011;3035;49.928;8.410;2023-06-14T08:17:35;5.67;;;2.80;;
6013;SDS011;3035;49.928;8.410;2023-06-14T08:20:04;3.83;;;2.60;;
6013;SDS011;3035;49.928;8.410;2023-06-14T08:22:34;2.40;;;2.20;;
6013;SDS011;3035;49.928;8.410;2023-06-14T08:25:04;12.97;;;2.33;;
6013;SDS011;3035;49.928;8.410;2023-06-14T08:27:33;13.03;;;2.70;;
6013;SDS011;3035;49.928;8.410;2023-06-14T08:30:02;4.10;;;2.30;;
6013;SDS011;3035;49.928;8.410;2023-06-14T08:32:32;7.13;;;2.40;;
6013;SDS011;3035;49.928;8.410;2023-06-14T08:35:01;5.90;;;2.80;;
6013;SDS011;3035;49.928;8.410;2023-06-14T08:37:30;7.80;;;2.70;;
6013;SDS011;3035;49.928;8.410;2023-06-14T08:40:00;4.73;;;2.37;;
6013;SDS011;3035;49.928;8.410;2023-06-14T08:42:29;5.63;;;2.03;;
6013;SDS011;3035;49.928;8.410;2023-06-14T08:44:58;4.93;;;2.30;;
6013;SDS011;3035;49.928;8.410;2023-06-14T08:47:27;3.23;;;2.37;;
6013;SDS011;3035;49.928;8.410;2023-06-14T08:49:57;9.43;;;2.30;;
6013;SDS011;3035;49.928;8.410;2023-06-14T08:52:26;5.43;;;2.10;;
6013;SDS011;3035;49.928;8.410;2023-06-14T08:54:55;3.13;;;2.00;;
6013;SDS011;3035;49.928;8.410;2023-06-14T08:57:24;2.13;;;1.83;;
6013;SDS011;3035;49.928;8.410;2023-06-14T08:59:54;2.23;;;1.70;;
6013;SDS011;3035;49.928;8.410;2023-06-14T09:02:23;3.67;;;1.90;;
6013;SDS011;3035;49.928;8.410;2023-06-14T09:04:52;2.90;;;2.03;;
6013;SDS011;3035;49.928;8.410;2023-06-14T09:07:21;5.03;;;2.50;;
6013;SDS011;3035;49.928;8.410;2023-06-14T09:10:04;4.00;;;1.80;;
6013;SDS011;3035;49.928;8.410;2023-06-14T09:12:20;4.67;;;2.07;;
6013;SDS011;3035;49.928;8.410;2023-06-14T09:14:49;4.10;;;1.80;;
6013;SDS011;3035;49.928;8.410;2023-06-14T09:17:19;3.07;;;1.90;;
6013;SDS011;3035;49.928;8.410;2023-06-14T09:19:48;2.00;;;1.80;;
6013;SDS011;3035;49.928;8.410;2023-06-14T09:22:17;3.23;;;2.50;;
6013;SDS011;3035;49.928;8.410;2023-06-14T09:24:46;2.90;;;2.30;;
6013;SDS011;3035;49.928;8.410;2023-06-14T09:27:16;1.83;;;1.70;;
6013;SDS011;3035;49.928;8.410;2023-06-14T09:29:45;2.13;;;1.93;;
6013;SDS011;3035;49.928;8.410;2023-06-14T09:32:14;3.67;;;2.00;;
6013;SDS011;3035;49.928;8.410;2023-06-14T09:34:45;2.20;;;1.90;;
6013;SDS011;3035;49.928;8.410;2023-06-14T09:37:13;3.83;;;1.87;;
6013;SDS011;3035;49.928;8.410;2023-06-14T09:42:17;10.00;;;2.23;;
6013;SDS011;3035;49.928;8.410;2023-06-14T09:44:47;3.90;;;1.93;;
6013;SDS011;3035;49.928;8.410;2023-06-14T09:47:16;6.03;;;2.20;;
6013;SDS011;3035;49.928;8.410;2023-06-14T09:49:45;14.83;;;2.00;;
6013;SDS011;3035;49.928;8.410;2023-06-14T09:52:15;2.80;;;1.93;;
6013;SDS011;3035;49.928;8.410;2023-06-14T09:54:45;2.30;;;1.77;;
6013;SDS011;3035;49.928;8.410;2023-06-14T09:57:15;3.50;;;1.83;;
6013;SDS011;3035;49.928;8.410;2023-06-14T09:59:44;2.00;;;1.80;;
6013;SDS011;3035;49.928;8.410;2023-06-14T10:02:29;2.93;;;1.77;;
6013;SDS011;3035;49.928;8.410;2023-06-14T10:05:06;3.10;;;1.77;;
6013;SDS011;3035;49.928;8.410;2023-06-14T10:07:40;5.87;;;1.80;;
6013;SDS011;3035;49.928;8.410;2023-06-14T10:10:08;6.40;;;1.70;;
6013;SDS011;3035;49.928;8.410;2023-06-14T10:12:37;3.00;;;1.50;;
6013;SDS011;3035;49.928;8.410;2023-06-14T10:15:08;2.87;;;1.70;;
6013;SDS011;3035;49.928;8.410;2023-06-14T10:20:28;3.13;;;1.60;;
6013;SDS011;3035;49.928;8.410;2023-06-14T10:23:01;5.00;;;1.83;;
6013;SDS011;3035;49.928;8.410;2023-06-14T10:25:29;4.50;;;1.80;;
6013;SDS011;3035;49.928;8.410;2023-06-14T10:28:14;3.23;;;2.10;;
6013;SDS011;3035;49.928;8.410;2023-06-14T10:33:48;1.97;;;1.63;;
6013;SDS011;3035;49.928;8.410;2023-06-14T10:36:25;6.50;;;1.60;;
6013;SDS011;3035;49.928;8.410;2023-06-14T10:39:04;4.97;;;1.80;;
6013;SDS011;3035;49.928;8.410;2023-06-14T10:41:35;2.50;;;1.60;;
6013;SDS011;3035;49.928;8.410;2023-06-14T10:47:00;3.20;;;1.70;;
6013;SDS011;3035;49.928;8.410;2023-06-14T10:49:37;1.90;;;1.50;;
6013;SDS011;3035;49.928;8.410;2023-06-14T10:52:12;7.93;;;1.80;;
6013;SDS011;3035;49.928;8.410;2023-06-14T10:54:54;1.93;;;1.60;;
6013;SDS011;3035;49.928;8.410;2023-06-14T10:57:09;1.97;;;1.50;;
6013;SDS011;3035;49.928;8.410;2023-06-14T10:59:39;3.67;;;1.40;;
6013;SDS011;3035;49.928;8.410;2023-06-14T11:05:02;9.47;;;2.70;;
6013;SDS011;3035;49.928;8.410;2023-06-14T11:07:37;4.03;;;2.20;;
6013;SDS011;3035;49.928;8.410;2023-06-14T11:13:06;3.87;;;1.60;;
6013;SDS011;3035;49.928;8.410;2023-06-14T11:15:36;8.77;;;2.30;;
6013;SDS011;3035;49.928;8.410;2023-06-14T11:18:05;3.10;;;1.90;;
6013;SDS011;3035;49.928;8.410;2023-06-14T11:20:35;2.57;;;2.00;;
6013;SDS011;3035;49.928;8.410;2023-06-14T11:23:04;1.97;;;1.63;;
6013;SDS011;3035;49.928;8.410;2023-06-14T11:25:33;2.33;;;1.70;;
6013;SDS011;3035;49.928;8.410;2023-06-14T11:28:02;2.00;;;1.80;;
6013;SDS011;3035;49.928;8.410;2023-06-14T11:30:31;3.67;;;1.60;;
6013;SDS011;3035;49.928;8.410;2023-06-14T11:33:01;4.30;;;1.87;;
6013;SDS011;3035;49.928;8.410;2023-06-14T11:35:30;5.63;;;1.80;;
6013;SDS011;3035;49.928;8.410;2023-06-14T11:38:01;3.40;;;2.03;;
6013;SDS011;3035;49.928;8.410;2023-06-14T11:40:29;3.00;;;2.03;;
6013;SDS011;3035;49.928;8.410;2023-06-14T11:42:58;3.10;;;2.10;;
6013;SDS011;3035;49.928;8.410;2023-06-14T11:45:28;1.83;;;1.57;;
6013;SDS011;3035;49.928;8.410;2023-06-14T11:47:57;2.20;;;1.80;;
6013;SDS011;3035;49.928;8.410;2023-06-14T11:50:26;2.13;;;1.80;;
6013;SDS011;3035;49.928;8.410;2023-06-14T11:52:55;8.90;;;2.10;;
6013;SDS011;3035;49.928;8.410;2023-06-14T11:55:24;4.70;;;1.50;;
6013;SDS011;3035;49.928;8.410;2023-06-14T11:57:54;3.80;;;2.17;;
6013;SDS011;3035;49.928;8.410;2023-06-14T12:00:24;5.00;;;2.23;;
6013;SDS011;3035;49.928;8.410;2023-06-14T12:02:53;4.10;;;2.27;;
6013;SDS011;3035;49.928;8.410;2023-06-14T12:05:25;1.97;;;1.83;;
6013;SDS011;3035;49.928;8.410;2023-06-14T12:07:59;3.73;;;1.80;;
6013;SDS011;3035;49.928;8.410;2023-06-14T12:10:28;4.67;;;1.80;;
6013;SDS011;3035;49.928;8.410;2023-06-14T12:12:58;3.70;;;2.10;;
6013;SDS011;3035;49.928;8.410;2023-06-14T12:15:28;1.80;;;1.60;;
6013;SDS011;3035;49.928;8.410;2023-06-14T12:17:57;5.40;;;1.90;;
6013;SDS011;3035;49.928;8.410;2023-06-14T12:20:29;3.97;;;1.80;;
6013;SDS011;3035;49.928;8.410;2023-06-14T12:22:58;2.67;;;2.00;;
6013;SDS011;3035;49.928;8.410;2023-06-14T12:25:29;3.67;;;1.70;;
6013;SDS011;3035;49.928;8.410;2023-06-14T12:28:03;2.33;;;1.87;;
6013;SDS011;3035;49.928;8.410;2023-06-14T12:30:31;2.57;;;1.80;;
6013;SDS011;3035;49.928;8.410;2023-06-14T12:33:01;9.57;;;1.97;;
6013;SDS011;3035;49.928;8.410;2023-06-14T12:35:29;2.07;;;1.80;;
6013;SDS011;3035;49.928;8.410;2023-06-14T12:37:59;7.87;;;2.10;;
6013;SDS011;3035;49.928;8.410;2023-06-14T12:40:28;10.53;;;1.90;;
6013;SDS011;3035;49.928;8.410;2023-06-14T12:42:57;4.00;;;1.90;;
6013;SDS011;3035;49.928;8.410;2023-06-14T12:45:26;2.33;;;1.70;;
6013;SDS011;3035;49.928;8.410;2023-06-14T12:47:56;4.43;;;1.73;;
6013;SDS011;3035;49.928;8.410;2023-06-14T12:50:25;2.80;;;2.00;;
6013;SDS011;3035;49.928;8.410;2023-06-14T12:52:54;3.27;;;1.70;;
6013;SDS011;3035;49.928;8.410;2023-06-14T12:55:23;7.37;;;2.07;;
6013;SDS011;3035;49.928;8.410;2023-06-14T12:57:53;2.30;;;2.07;;
6013;SDS011;3035;49.928;8.410;2023-06-14T13:00:22;4.60;;;2.20;;
6013;SDS011;3035;49.928;8.410;2023-06-14T13:02:51;4.80;;;2.10;;
6013;SDS011;3035;49.928;8.410;2023-06-14T13:05:21;2.50;;;1.70;;
6013;SDS011;3035;49.928;8.410;2023-06-14T13:07:50;4.87;;;1.90;;
6013;SDS011;3035;49.928;8.410;2023-06-14T13:10:19;2.43;;;1.70;;
6013;SDS011;3035;49.928;8.410;2023-06-14T13:12:48;3.10;;;2.40;;
6013;SDS011;3035;49.928;8.410;2023-06-14T13:15:18;3.03;;;2.03;;
6013;SDS011;3035;49.928;8.410;2023-06-14T13:17:47;4.47;;;1.90;;
6013;SDS011;3035;49.928;8.410;2023-06-14T13:20:16;4.07;;;1.97;;
6013;SDS011;3035;49.928;8.410;2023-06-14T13:22:45;6.23;;;2.00;;
6013;SDS011;3035;49.928;8.410;2023-06-14T13:25:15;5.80;;;2.50;;
6013;SDS011;3035;49.928;8.410;2023-06-14T13:27:44;3.23;;;2.40;;
6013;SDS011;3035;49.928;8.410;2023-06-14T13:30:13;4.60;;;2.67;;
6013;SDS011;3035;49.928;8.410;2023-06-14T13:32:42;4.97;;;2.10;;
6013;SDS011;3035;49.928;8.410;2023-06-14T13:35:12;4.17;;;2.00;;
6013;SDS011;3035;49.928;8.410;2023-06-14T13:37:41;3.63;;;2.63;;
6013;SDS011;3035;49.928;8.410;2023-06-14T13:40:10;3.53;;;1.80;;
6013;SDS011;3035;49.928;8.410;2023-06-14T13:42:40;4.60;;;2.40;;
6013;SDS011;3035;49.928;8.410;2023-06-14T13:45:10;3.87;;;2.13;;
6013;SDS011;3035;49.928;8.410;2023-06-14T13:47:39;2.53;;;2.30;;
6013;SDS011;3035;49.928;8.410;2023-06-14T13:50:08;3.53;;;2.20;;
6013;SDS011;3035;49.928;8.410;2023-06-14T13:52:38;2.60;;;2.23;;
6013;SDS011;3035;49.928;8.410;2023-06-14T13:55:07;4.07;;;2.13;;
6013;SDS011;3035;49.928;8.410;2023-06-14T13:57:37;3.70;;;2.30;;
6013;SDS011;3035;49.928;8.410;2023-06-14T14:00:06;2.63;;;2.30;;
6013;SDS011;3035;49.928;8.410;2023-06-14T14:02:36;8.53;;;2.27;;
6013;SDS011;3035;49.928;8.410;2023-06-14T14:05:05;2.00;;;1.70;;
6013;SDS011;3035;49.928;8.410;2023-06-14T14:07:35;5.43;;;2.20;;
6013;SDS011;3035;49.928;8.410;2023-06-14T14:10:04;5.10;;;2.63;;
6013;SDS011;3035;49.928;8.410;2023-06-14T14:12:34;3.20;;;2.47;;
6013;SDS011;3035;49.928;8.410;2023-06-14T14:15:04;3.20;;;2.30;;
6013;SDS011;3035;49.928;8.410;2023-06-14T14:17:34;3.50;;;2.27;;
6013;SDS011;3035;49.928;8.410;2023-06-14T14:20:03;5.70;;;2.37;;
6013;SDS011;3035;49.928;8.410;2023-06-14T14:22:33;5.90;;;2.60;;
6013;SDS011;3035;49.928;8.410;2023-06-14T14:25:02;3.80;;;2.50;;
6013;SDS011;3035;49.928;8.410;2023-06-14T14:27:32;3.80;;;2.20;;
6013;SDS011;3035;49.928;8.410;2023-06-14T14:30:01;3.50;;;2.17;;
6013;SDS011;3035;49.928;8.410;2023-06-14T14:32:30;4.67;;;2.30;;
6013;SDS011;3035;49.928;8.410;2023-06-14T14:34:59;3.00;;;2.50;;
6013;SDS011;3035;49.928;8.410;2023-06-14T14:37:29;3.03;;;2.57;;
6013;SDS011;3035;49.928;8.410;2023-06-14T14:39:58;4.80;;;1.93;;
6013;SDS011;3035;49.928;8.410;2023-06-14T14:42:27;7.30;;;2.13;;
6013;SDS011;3035;49.928;8.410;2023-06-14T14:44:56;4.10;;;2.57;;
6013;SDS011;3035;49.928;8.410;2023-06-14T14:47:26;6.60;;;1.83;;
6013;SDS011;3035;49.928;8.410;2023-06-14T14:49:55;3.00;;;2.20;;
6013;SDS011;3035;49.928;8.410;2023-06-14T14:52:24;4.50;;;1.90;;
6013;SDS011;3035;49.928;8.410;2023-06-14T14:54:54;2.20;;;2.00;;
6013;SDS011;3035;49.928;8.410;2023-06-14T14:57:23;6.73;;;2.30;;
6013;SDS011;3035;49.928;8.410;2023-06-14T14:59:52;2.57;;;2.10;;
6013;SDS011;3035;49.928;8.410;2023-06-14T15:02:21;4.73;;;1.90;;
6013;SDS011;3035;49.928;8.410;2023-06-14T15:04:51;4.70;;;2.27;;
6013;SDS011;3035;49.928;8.410;2023-06-14T15:07:20;4.23;;;2.53;;
6013;SDS011;3035;49.928;8.410;2023-06-14T15:09:49;2.33;;;2.13;;
6013;SDS011;3035;49.928;8.410;2023-06-14T15:12:18;3.80;;;2.30;;
6013;SDS011;3035;49.928;8.410;2023-06-14T15:14:50;4.63;;;2.30;;
6013;SDS011;3035;49.928;8.410;2023-06-14T15:17:19;3.90;;;1.97;;
6013;SDS011;3035;49.928;8.410;2023-06-14T15:19:48;4.10;;;1.60;;
6013;SDS011;3035;49.928;8.410;2023-06-14T15:22:17;3.20;;;2.00;;
6013;SDS011;3035;49.928;8.410;2023-06-14T15:24:46;4.10;;;1.80;;
6013;SDS011;3035;49.928;8.410;2023-06-14T15:27:15;2.03;;;1.87;;
6013;SDS011;3035;49.928;8.410;2023-06-14T15:29:46;2.40;;;1.60;;
6013;SDS011;3035;49.928;8.410;2023-06-14T15:32:14;1.63;;;1.47;;
6013;SDS011;3035;49.928;8.410;2023-06-14T15:34:43;6.33;;;1.70;;
6013;SDS011;3035;49.928;8.410;2023-06-14T15:37:12;3.60;;;2.20;;
6013;SDS011;3035;49.928;8.410;2023-06-14T15:39:42;8.83;;;2.00;;
6013;SDS011;3035;49.928;8.410;2023-06-14T15:42:11;3.40;;;1.80;;
6013;SDS011;3035;49.928;8.410;2023-06-14T15:44:40;1.90;;;1.70;;